Time;durP1;ratioP1;P1;durP2;ratioP2;P2;SDS_P1;SDS_P2;PMS_P1;PMS_P2;Temp;Humidity;BMP_temperature;BMP_pressure;BME280_temperature;BME280_humidity;BME280_pressure;Samples;Min_cycle;Max_cycle;Signal;HPM_P1;HPM_P2
2021/12/12 00:00:38;;;;;;;;;;;;;;;;;;2211806;67;1235;-68
2021/12/12 00:03:20;;;;;;;;;;;;;;;;;;2206968;59;2156;-69
2021/12/12 00:05:55;;;;;;;;;;;;;;;;;;2211481;59;1929;-69
2021/12/12 00:08:29;;;;;;;;;;;;;;;;;;2209059;67;1203;-68
2021/12/12 00:11:07;;;;;;;;;;;;;;;;;;2210238;59;1245;-68
2021/12/12 00:13:43;;;;;;;;;;;;;;;;;;2211137;59;1590;-68
2021/12/12 00:16:17;;;;;;;;;;;;;;;;;;2210629;59;1234;-68
2021/12/12 00:18:50;;;;;;;;;;;;;;;;;;2211361;59;1520;-68
2021/12/12 00:21:25;;;;;;;;;;;;;;;;;;2210964;59;1694;-69
2021/12/12 00:23:59;;;;;;;;;;;;;;;;;;2211017;59;1437;-69
2021/12/12 00:26:35;;;;;;;;;;;;;;;;;;2211549;59;1992;-68
2021/12/12 00:29:09;;;;;;;;;;;;;;;;;;2211423;60;1469;-69
2021/12/12 00:31:42;;;;;;;;;;;;;;;;;;2211948;59;1385;-69
2021/12/12 00:34:16;;;;;;;;;;;;;;;;;;2211394;59;1128;-69
2021/12/12 00:36:50;;;;;;;;;;;;;;;;;;2211019;67;1219;-69
2021/12/12 00:39:24;;;;;;;;;;;;;;;;;;2210855;67;1250;-69
2021/12/12 00:42:02;;;;;;;;;;;;;;;;;;2211063;67;1207;-68
2021/12/12 00:44:35;;;;;;;;;;;;;;;;;;2211249;59;1203;-68
2021/12/12 00:47:10;;;;;;;;;;;;;;;;;;2210625;67;2048;-68
2021/12/12 00:49:43;;;;;;;;;;;;;;;;;;2209757;59;1238;-68
2021/12/12 00:52:18;;;;;;;;;;;;;;;;;;2211916;67;1077;-68
2021/12/12 00:54:53;;;;;;;;;;;;;;;;;;2211475;67;1388;-68
2021/12/12 00:57:29;;;;;;;;;;;;;;;;;;2211588;67;1267;-69
2021/12/12 01:00:03;;;;;;;;;;;;;;;;;;2211776;67;1166;-69
2021/12/12 01:02:36;;;;;;;;;;;;;;;;;;2210836;59;1347;-69
2021/12/12 01:05:10;;;;;;;;;;;;;;;;;;2211771;67;1263;-69
2021/12/12 01:07:44;;;;;;;;;;;;;;;;;;2210549;59;1947;-69
2021/12/12 01:10:22;;;;;;;;;;;;;;;;;;2211515;67;1181;-68
2021/12/12 01:12:59;;;;;;;;;;;;;;;;;;2211014;59;1290;-68
2021/12/12 01:15:35;;;;;;;;;;;;;;;;;;2210539;59;1416;-68
2021/12/12 01:18:10;;;;;;;;;;;;;;;;;;2212272;59;1355;-68
2021/12/12 01:20:46;;;;;;;;;;;;;;;;;;2211025;59;1774;-69
2021/12/12 01:23:22;;;;;;;;;;;;;;;;;;2210988;59;1291;-68
2021/12/12 01:25:57;;;;;;;;;;;;;;;;;;2209762;59;2021;-68
2021/12/12 01:28:35;;;;;;;;;;;;;;;;;;2209454;59;1232;-69
2021/12/12 01:31:10;;;;;;;;;;;;;;;;;;2211039;67;1562;-68
2021/12/12 01:33:44;;;;;;;;;;;;;;;;;;2211385;67;1217;-68
2021/12/12 01:36:24;;;;;;;;;;;;;;;;;;2209986;67;1132;-68
2021/12/12 01:39:00;;;;;;;;;;;;;;;;;;2210294;59;1756;-69
2021/12/12 01:41:35;;;;;;;;;;;;;;;;;;2209920;59;1249;-68
2021/12/12 01:44:13;;;;;;;;;;;;;;;;;;2210442;59;1880;-69
2021/12/12 01:46:50;;;;;;;;;;;;;;;;;;2210034;59;1981;-69
2021/12/12 01:49:24;;;;;;;;;;;;;;;;;;2210689;59;1245;-69
2021/12/12 01:51:58;;;;;;;;;;;;;;;;;;2211266;59;1069;-68
2021/12/12 01:54:41;;;;;;;;;;;;;;;;;;2210984;59;1180;-68
2021/12/12 01:57:16;;;;;;;;;;;;;;;;;;2211560;67;1141;-68
2021/12/12 01:59:53;;;;;;;;;;;;;;;;;;2211457;67;1202;-68
2021/12/12 02:02:29;;;;;;;;;;;;;;;;;;2211374;59;1134;-68
2021/12/12 02:05:05;;;;;;;;;;;;;;;;;;2210954;67;1116;-68
2021/12/12 02:07:40;;;;;;;;;;;;;;;;;;2210261;59;1937;-68
2021/12/12 02:10:18;;;;;;;;;;;;;;;;;;2210405;67;1244;-68
2021/12/12 02:12:52;;;;;;;;;;;;;;;;;;2207622;59;2130;-69
2021/12/12 02:15:29;;;;;;;;;;;;;;;;;;2211001;59;1117;-69
2021/12/12 02:18:05;;;;;;;;;;;;;;;;;;2211481;59;1342;-68
2021/12/12 02:20:43;;;;;;;;;;;;;;;;;;2211822;67;1536;-68
2021/12/12 02:23:28;;;;;;;;;;;;;;;;;;2211182;59;1298;-69
2021/12/12 02:37:18;;;;;;;;;;;;;;;;;;2210697;67;1090;-69
2021/12/12 02:39:54;;;;;;;;;;;;;;;;;;2212057;67;1202;-69
2021/12/12 02:42:28;;;;;;;;;;;;;;;;;;2211423;67;1169;-68
2021/12/12 02:45:02;;;;;;;;;;;;;;;;;;2211084;67;1210;-69
2021/12/12 02:47:35;;;;;;;;;;;;;;;;;;2211290;67;1928;-68
2021/12/12 02:50:13;;;;;;;;;;;;;;;;;;2211827;59;1238;-69
2021/12/12 02:52:47;;;;;;;;;;;;;;;;;;2210907;67;1192;-68
2021/12/12 02:55:25;;;;;;;;;;;;;;;;;;2212099;67;1121;-69
2021/12/12 02:57:59;;;;;;;;;;;;;;;;;;2212195;67;1103;-68
2021/12/12 03:00:34;;;;;;;;;;;;;;;;;;2211393;59;1234;-68
2021/12/12 03:03:08;;;;;;;;;;;;;;;;;;2211745;59;1294;-68
2021/12/12 03:05:44;;;;;;;;;;;;;;;;;;2211257;59;1113;-68
2021/12/12 03:08:17;;;;;;;;;;;;;;;;;;2205706;67;1947;-68
2021/12/12 03:10:54;;;;;;;;;;;;;;;;;;2211521;67;1140;-68
2021/12/12 03:13:28;;;;;;;;;;;;;;;;;;2211716;59;1256;-68
2021/12/12 03:16:01;;;;;;;;;;;;;;;;;;2211784;67;1212;-69
2021/12/12 03:18:39;;;;;;;;;;;;;;;;;;2211081;59;1407;-68
2021/12/12 03:21:17;;;;;;;;;;;;;;;;;;2212434;67;1643;-68
2021/12/12 03:23:51;;;;;;;;;;;;;;;;;;2211025;59;1319;-68
2021/12/12 03:26:27;;;;;;;;;;;;;;;;;;2211452;59;1983;-69
2021/12/12 03:29:01;;;;;;;;;;;;;;;;;;2211807;67;1257;-68
2021/12/12 03:31:36;;;;;;;;;;;;;;;;;;2209589;59;1434;-68
2021/12/12 03:34:10;;;;;;;;;;;;;;;;;;2209099;59;1222;-68
2021/12/12 03:36:44;;;;;;;;;;;;;;;;;;2210454;67;1080;-68
2021/12/12 03:39:19;;;;;;;;;;;;;;;;;;2211723;67;1259;-69
2021/12/12 03:41:56;;;;;;;;;;;;;;;;;;2211681;67;1235;-69
2021/12/12 03:44:32;;;;;;;;;;;;;;;;;;2210481;67;1177;-68
2021/12/12 03:47:09;;;;;;;;;;;;;;;;;;2211968;67;1997;-68
2021/12/12 03:49:42;;;;;;;;;;;;;;;;;;2211132;59;1245;-68
2021/12/12 03:52:17;;;;;;;;;;;;;;;;;;2210783;67;1141;-68
2021/12/12 03:54:52;;;;;;;;;;;;;;;;;;2211684;67;1258;-69
2021/12/12 03:57:29;;;;;;;;;;;;;;;;;;2211764;67;1257;-68
2021/12/12 04:00:02;;;;;;;;;;;;;;;;;;2211868;67;1271;-68
2021/12/12 04:02:36;;;;;;;;;;;;;;;;;;2211779;59;1291;-69
2021/12/12 04:05:10;;;;;;;;;;;;;;;;;;2207795;67;1931;-68
2021/12/12 04:07:43;;;;;;;;;;;;;;;;;;2210260;59;1926;-68
2021/12/12 04:10:20;;;;;;;;;;;;;;;;;;2210690;67;1272;-68
2021/12/12 04:12:56;;;;;;;;;;;;;;;;;;2210580;59;1274;-68
2021/12/12 04:15:30;;;;;;;;;;;;;;;;;;2205971;67;1482;-68
2021/12/12 04:18:03;;;;;;;;;;;;;;;;;;2211223;59;1537;-68
2021/12/12 04:20:39;;;;;;;;;;;;;;;;;;2212004;59;1718;-68
2021/12/12 04:23:16;;;;;;;;;;;;;;;;;;2211242;59;1277;-68
2021/12/12 04:25:50;;;;;;;;;;;;;;;;;;2211683;67;1478;-68
2021/12/12 04:28:25;;;;;;;;;;;;;;;;;;2211019;59;1922;-69
2021/12/12 04:30:59;;;;;;;;;;;;;;;;;;2211489;59;1413;-68
2021/12/12 04:33:32;;;;;;;;;;;;;;;;;;2209449;59;1096;-69
2021/12/12 04:36:06;;;;;;;;;;;;;;;;;;2211732;67;1211;-68
2021/12/12 04:38:39;;;;;;;;;;;;;;;;;;2210867;67;1234;-68
2021/12/12 04:41:12;;;;;;;;;;;;;;;;;;2210032;67;1192;-68
2021/12/12 04:43:48;;;;;;;;;;;;;;;;;;2209430;59;1846;-69
2021/12/12 04:46:26;;;;;;;;;;;;;;;;;;2209216;59;2556;-68
2021/12/12 04:51:51;;;;;;;;;;;;;;;;;;2209847;53;3536;-69
2021/12/12 04:54:35;;;;;;;;;;;;;;;;;;2210557;59;1820;-69
2021/12/12 04:57:10;;;;;;;;;;;;;;;;;;2211716;59;1160;-69
2021/12/12 04:59:48;;;;;;;;;;;;;;;;;;2210732;59;1216;-68
2021/12/12 05:02:29;;;;;;;;;;;;;;;;;;2207525;59;1403;-69
2021/12/12 05:05:05;;;;;;;;;;;;;;;;;;2205578;67;1105;-69
2021/12/12 05:07:50;;;;;;;;;;;;;;;;;;2206679;59;1937;-69
2021/12/12 05:10:26;;;;;;;;;;;;;;;;;;2207891;67;1185;-69
2021/12/12 05:13:01;;;;;;;;;;;;;;;;;;2207572;59;1312;-69
2021/12/12 05:15:39;;;;;;;;;;;;;;;;;;2206358;67;1229;-68
2021/12/12 05:18:15;;;;;;;;;;;;;;;;;;2206598;59;1434;-69
2021/12/12 05:20:51;;;;;;;;;;;;;;;;;;2206350;59;1532;-68
2021/12/12 05:23:27;;;;;;;;;;;;;;;;;;2206464;59;1149;-69
2021/12/12 05:26:05;;;;;;;;;;;;;;;;;;2206679;59;1227;-69
2021/12/12 05:28:42;;;;;;;;;;;;;;;;;;2207939;67;1928;-68
2021/12/12 05:31:27;;;;;;;;;;;;;;;;;;2208017;59;2514;-69
2021/12/12 05:34:01;;;;;;;;;;;;;;;;;;2207401;59;1283;-68
2021/12/12 05:36:54;;;;;;;;;;;;;;;;;;;;;
2021/12/12 05:39:34;;;;;;;;;;;;;;;;;;2208599;59;1430;-68
2021/12/12 05:42:09;;;;;;;;;;;;;;;;;;2206813;67;1396;-68
2021/12/12 05:44:42;;;;;;;;;;;;;;;;;;2206223;67;1166;-68
2021/12/12 05:47:20;;;;;;;;;;;;;;;;;;2206759;59;1918;-69
2021/12/12 05:49:53;;;;;;;;;;;;;;;;;;2208037;67;1206;-68
2021/12/12 05:52:27;;;;;;;;;;;;;;;;;;2206462;67;1234;-68
2021/12/12 05:55:19;;;;;;;;;;;;;;;;;;;;;
2021/12/12 05:57:55;;;;;;;;;;;;;;;;;;2203551;67;1264;-68
2021/12/12 06:00:30;;;;;;;;;;;;;;;;;;2207963;59;1324;-68
2021/12/12 06:03:09;;;;;;;;;;;;;;;;;;2206087;59;1199;-68
2021/12/12 06:05:52;;;;;;;;;;;;;;;;;;2208102;67;1230;-68
2021/12/12 06:08:36;;;;;;;;;;;;;;;;;;2206827;67;1977;-68
2021/12/12 06:11:22;;;;;;;;;;;;;;;;;;2206856;67;1225;-68
2021/12/12 06:13:57;;;;;;;;;;;;;;;;;;2207623;67;1058;-68
2021/12/12 06:16:43;;;;;;;;;;;;;;;;;;2206929;59;1177;-68
2021/12/12 06:19:21;;;;;;;;;;;;;;;;;;2207648;59;1333;-68
2021/12/12 06:22:17;;;;;;;;;;;;;;;;;;;;;
2021/12/12 06:25:08;;;;;;;;;;;;;;;;;;2204843;59;1190;-68
2021/12/12 06:28:09;;;;;;;;;;;;;;;;;;2206296;67;2591;-68
2021/12/12 06:30:44;;;;;;;;;;;;;;;;;;2206688;59;1353;-68
2021/12/12 06:33:26;;;;;;;;;;;;;;;;;;2207420;67;1210;-68
2021/12/12 06:36:02;;;;;;;;;;;;;;;;;;2204176;67;1797;-68
2021/12/12 06:38:36;;;;;;;;;;;;;;;;;;2208406;59;1464;-68
2021/12/12 06:41:11;;;;;;;;;;;;;;;;;;2206898;67;1144;-68
2021/12/12 06:43:47;;;;;;;;;;;;;;;;;;2207195;67;1246;-68
2021/12/12 06:49:09;;;;;;;;;;;;;;;;;;2207460;67;1969;-67
2021/12/12 06:51:47;;;;;;;;;;;;;;;;;;2207895;59;1160;-68
2021/12/12 06:54:27;;;;;;;;;;;;;;;;;;2206690;67;1146;-68
2021/12/12 06:57:02;;;;;;;;;;;;;;;;;;2207556;67;1142;-68
2021/12/12 06:59:39;;;;;;;;;;;;;;;;;;2207615;67;1134;-68
2021/12/12 07:02:14;;;;;;;;;;;;;;;;;;2206452;59;1362;-68
2021/12/12 07:05:09;;;;;;;;;;;;;;;;;;2207142;59;1716;-68
2021/12/12 07:10:37;;;;;;;;;;;;;;;;;;2209137;67;1244;-68
2021/12/12 07:13:10;;;;;;;;;;;;;;;;;;2207700;59;1325;-67
2021/12/12 07:15:47;;;;;;;;;;;;;;;;;;2208475;67;1223;-68
2021/12/12 07:18:23;;;;;;;;;;;;;;;;;;2207832;59;1464;-68
2021/12/12 07:20:58;;;;;;;;;;;;;;;;;;2207931;67;1551;-68
2021/12/12 07:23:36;;;;;;;;;;;;;;;;;;2207856;67;1166;-68
2021/12/12 07:26:13;;;;;;;;;;;;;;;;;;2208262;67;1189;-68
2021/12/12 07:28:48;;;;;;;;;;;;;;;;;;2207965;67;1933;-68
2021/12/12 07:31:25;;;;;;;;;;;;;;;;;;2208690;59;1464;-68
2021/12/12 07:34:02;;;;;;;;;;;;;;;;;;2206338;59;1305;-67
2021/12/12 07:36:37;;;;;;;;;;;;;;;;;;2208572;67;1320;-67
2021/12/12 07:39:17;;;;;;;;;;;;;;;;;;2208238;67;1250;-68
2021/12/12 07:42:01;;;;;;;;;;;;;;;;;;2208737;67;1172;-68
2021/12/12 07:44:36;;;;;;;;;;;;;;;;;;2208033;67;1304;-67
2021/12/12 07:47:31;;;;;;;;;;;;;;;;;;2208377;67;1168;-68
2021/12/12 07:50:30;;;;;;;;;;;;;;;;;;2206672;67;1957;-68
2021/12/12 07:59:06;;;;;;;;;;;;;;;;;;2206752;67;1332;-68
2021/12/12 08:01:42;;;;;;;;;;;;;;;;;;2207529;59;1248;-67
2021/12/12 08:04:19;;;;;;;;;;;;;;;;;;2207858;67;1135;-67
2021/12/12 08:06:53;;;;;;;;;;;;;;;;;;2204136;67;1577;-67
2021/12/12 08:09:27;;;;;;;;;;;;;;;;;;2208131;59;1992;-67
2021/12/12 08:12:01;;;;;;;;;;;;;;;;;;2207182;59;2865;-68
2021/12/12 08:14:40;;;;;;;;;;;;;;;;;;2206022;59;1225;-68
2021/12/12 08:17:16;;;;;;;;;;;;;;;;;;2208011;67;1144;-67
2021/12/12 08:22:36;;;;;;;;;;;;;;;;;;2207237;59;1268;-68
2021/12/12 08:25:12;;;;;;;;;;;;;;;;;;2206702;67;1105;-68
2021/12/12 08:27:51;;;;;;;;;;;;;;;;;;2208099;59;1232;-68
2021/12/12 08:30:27;;;;;;;;;;;;;;;;;;2207152;67;1700;-68
2021/12/12 08:33:01;;;;;;;;;;;;;;;;;;2207864;67;1249;-68
2021/12/12 08:35:36;;;;;;;;;;;;;;;;;;2207301;59;1268;-68
2021/12/12 08:38:14;;;;;;;;;;;;;;;;;;2207203;67;1127;-68
2021/12/12 08:40:49;;;;;;;;;;;;;;;;;;2209113;67;1194;-68
2021/12/12 08:43:29;;;;;;;;;;;;;;;;;;2208221;67;1122;-68
2021/12/12 08:46:07;;;;;;;;;;;;;;;;;;2206913;59;2586;-69
2021/12/12 08:48:42;;;;;;;;;;;;;;;;;;2208180;67;1919;-68
2021/12/12 08:51:17;;;;;;;;;;;;;;;;;;2207406;59;1220;-68
2021/12/12 08:53:52;;;;;;;;;;;;;;;;;;2207874;59;2355;-68
2021/12/12 08:56:42;;;;;;;;;;;;;;;;;;2207824;59;2172;-68
2021/12/12 08:59:19;;;;;;;;;;;;;;;;;;2208102;67;1116;-68
2021/12/12 09:01:57;;;;;;;;;;;;;;;;;;2207379;59;1216;-68
2021/12/12 09:04:31;;;;;;;;;;;;;;;;;;2207439;59;2163;-68
2021/12/12 09:07:08;;;;;;;;;;;;;;;;;;2207278;59;1311;-68
2021/12/12 09:09:43;;;;;;;;;;;;;;;;;;2207594;67;1930;-69
2021/12/12 09:12:26;;;;;;;;;;;;;;;;;;2207235;59;1309;-69
2021/12/12 09:15:04;;;;;;;;;;;;;;;;;;2206946;59;1705;-68
2021/12/12 09:17:44;;;;;;;;;;;;;;;;;;2207521;59;1975;-69
2021/12/12 09:20:33;;;;;;;;;;;;;;;;;;2207122;59;1666;-69
2021/12/12 09:23:08;;;;;;;;;;;;;;;;;;2206999;67;1366;-68
2021/12/12 09:28:32;;;;;;;;;;;;;;;;;;2206529;67;2235;-69
2021/12/12 09:31:17;;;;;;;;;;;;;;;;;;;;;
2021/12/12 09:33:55;;;;;;;;;;;;;;;;;;2204617;59;1281;-68
2021/12/12 09:36:46;;;;;;;;;;;;;;;;;;2207987;67;1162;-69
2021/12/12 09:39:36;;;;;;;;;;;;;;;;;;2208671;67;1195;-69
2021/12/12 09:42:21;;;;;;;;;;;;;;;;;;2207060;67;1306;-68
2021/12/12 09:45:04;;;;;;;;;;;;;;;;;;2207216;59;1643;-69
2021/12/12 09:48:14;;;;;;;;;;;;;;;;;;2207384;67;1249;-69
2021/12/12 09:51:15;;;;;;;;;;;;;;;;;;2207292;59;1254;-69
2021/12/12 09:53:55;;;;;;;;;;;;;;;;;;2207657;67;1215;-69
2021/12/12 09:56:36;;;;;;;;;;;;;;;;;;2207413;67;1169;-69
2021/12/12 09:59:14;;;;;;;;;;;;;;;;;;2205216;67;1280;-68
2021/12/12 10:01:51;;;;;;;;;;;;;;;;;;2206403;59;1345;-69
2021/12/12 10:04:26;;;;;;;;;;;;;;;;;;2206591;59;1338;-69
2021/12/12 10:07:08;;;;;;;;;;;;;;;;;;2206997;59;1814;-68
2021/12/12 10:09:45;;;;;;;;;;;;;;;;;;2207251;67;1977;-69
2021/12/12 10:12:22;;;;;;;;;;;;;;;;;;2207574;59;1283;-69
2021/12/12 10:15:09;;;;;;;;;;;;;;;;;;2208117;59;1450;-69
2021/12/12 10:17:44;;;;;;;;;;;;;;;;;;2209705;67;1234;-69
2021/12/12 10:20:32;;;;;;;;;;;;;;;;;;;;;
2021/12/12 10:23:14;;;;;;;;;;;;;;;;;;2207484;59;2430;-69
2021/12/12 10:25:53;;;;;;;;;;;;;;;;;;2208079;59;1470;-69
2021/12/12 10:28:34;;;;;;;;;;;;;;;;;;2208887;59;1924;-69
2021/12/12 10:31:16;;;;;;;;;;;;;;;;;;2208447;59;1391;-68
2021/12/12 10:33:53;;;;;;;;;;;;;;;;;;2206938;59;2620;-68
2021/12/12 10:36:29;;;;;;;;;;;;;;;;;;2207869;67;1194;-69
2021/12/12 10:39:09;;;;;;;;;;;;;;;;;;2209313;59;1246;-69
2021/12/12 10:41:46;;;;;;;;;;;;;;;;;;2208378;67;1273;-69
2021/12/12 10:44:25;;;;;;;;;;;;;;;;;;2208348;67;1018;-69
2021/12/12 10:47:02;;;;;;;;;;;;;;;;;;2208279;59;1461;-68
2021/12/12 10:49:40;;;;;;;;;;;;;;;;;;2208878;59;1985;-69
2021/12/12 10:52:14;;;;;;;;;;;;;;;;;;2206635;59;2385;-68
2021/12/12 10:54:54;;;;;;;;;;;;;;;;;;2207472;59;1530;-69
2021/12/12 10:57:31;;;;;;;;;;;;;;;;;;2208236;59;1437;-68
2021/12/12 11:00:09;;;;;;;;;;;;;;;;;;2207222;59;2166;-68
2021/12/12 11:02:47;;;;;;;;;;;;;;;;;;2207054;59;2567;-68
2021/12/12 11:05:24;;;;;;;;;;;;;;;;;;2207540;59;1801;-68
2021/12/12 11:08:02;;;;;;;;;;;;;;;;;;2208695;67;1204;-68
2021/12/12 11:10:40;;;;;;;;;;;;;;;;;;2207364;59;2298;-68
2021/12/12 11:13:19;;;;;;;;;;;;;;;;;;2206833;59;1432;-68
2021/12/12 11:15:56;;;;;;;;;;;;;;;;;;2206151;59;2430;-68
2021/12/12 11:18:41;;;;;;;;;;;;;;;;;;2207552;59;1484;-68
2021/12/12 11:21:16;;;;;;;;;;;;;;;;;;2207437;59;1599;-68
2021/12/12 11:24:09;;;;;;;;;;;;;;;;;;2207126;59;1774;-68
2021/12/12 11:26:47;;;;;;;;;;;;;;;;;;2207494;67;1205;-68
2021/12/12 11:29:26;;;;;;;;;;;;;;;;;;2207469;59;2307;-68
2021/12/12 11:32:04;;;;;;;;;;;;;;;;;;2206760;59;2050;-68
2021/12/12 11:34:38;;;;;;;;;;;;;;;;;;2206250;59;2219;-69
2021/12/12 11:37:15;;;;;;;;;;;;;;;;;;2207015;59;1169;-68
2021/12/12 11:40:05;;;;;;;;;;;;;;;;;;;;;
2021/12/12 11:42:46;;;;;;;;;;;;;;;;;;2208114;59;1265;-68
2021/12/12 11:45:24;;;;;;;;;;;;;;;;;;2208066;59;1118;-69
2021/12/12 11:48:13;;;;;;;;;;;;;;;;;;2205368;59;1233;-68
2021/12/12 11:50:49;;;;;;;;;;;;;;;;;;2206664;59;1961;-69
2021/12/12 11:53:26;;;;;;;;;;;;;;;;;;2206967;67;1131;-69
2021/12/12 11:56:00;;;;;;;;;;;;;;;;;;2206945;67;1181;-69
2021/12/12 11:58:39;;;;;;;;;;;;;;;;;;2206656;67;1165;-68
2021/12/12 12:01:20;;;;;;;;;;;;;;;;;;2206849;67;1209;-69
2021/12/12 12:04:04;;;;;;;;;;;;;;;;;;2206302;59;1876;-69
2021/12/12 12:06:41;;;;;;;;;;;;;;;;;;2205260;67;1332;-69
2021/12/12 12:09:28;;;;;;;;;;;;;;;;;;2206905;67;1933;-69
2021/12/12 12:12:09;;;;;;;;;;;;;;;;;;2206480;59;1202;-69
2021/12/12 12:14:55;;;;;;;;;;;;;;;;;;2206347;60;1001;-69
2021/12/12 12:17:35;;;;;;;;;;;;;;;;;;2206660;59;1853;-69
2021/12/12 12:20:12;;;;;;;;;;;;;;;;;;2206766;59;1795;-69
2021/12/12 12:22:47;;;;;;;;;;;;;;;;;;2205623;59;1598;-68
2021/12/12 12:26:50;;;;;;;;;;;;;;;;;;2206979;67;1115;-69
2021/12/12 12:28:40;;;;;;;;;;;;;;;;;;2206854;59;1918;-69
2021/12/12 12:31:31;;;;;;;;;;;;;;;;;;2206277;59;2168;-69
2021/12/12 12:34:24;;;;;;;;;;;;;;;;;;2204866;59;2709;-68
2021/12/12 12:37:16;;;;;;;;;;;;;;;;;;2206636;59;2247;-68
2021/12/12 12:40:08;;;;;;;;;;;;;;;;;;2207326;59;2199;-69
2021/12/12 12:46:04;;;;;;;;;;;;;;;;;;2207391;59;2248;-69
2021/12/12 12:49:04;;;;;;;;;;;;;;;;;;2207092;67;1038;-69
2021/12/12 12:51:43;;;;;;;;;;;;;;;;;;2207900;59;1924;-69
2021/12/12 12:54:28;;;;;;;;;;;;;;;;;;2207039;59;1215;-69
2021/12/12 12:57:17;;;;;;;;;;;;;;;;;;2208040;67;1183;-69
2021/12/12 12:59:55;;;;;;;;;;;;;;;;;;2206280;59;1482;-69
2021/12/12 13:02:33;;;;;;;;;;;;;;;;;;2205627;59;2416;-69
2021/12/12 13:05:25;;;;;;;;;;;;;;;;;;2205820;59;1107;-69
2021/12/12 13:08:31;;;;;;;;;;;;;;;;;;2205986;59;1774;-69
2021/12/12 13:11:10;;;;;;;;;;;;;;;;;;2206470;59;2257;-69
2021/12/12 13:13:48;;;;;;;;;;;;;;;;;;2207251;59;1255;-69
2021/12/12 13:16:27;;;;;;;;;;;;;;;;;;2205407;59;1864;-69
2021/12/12 13:19:03;;;;;;;;;;;;;;;;;;2205420;59;1587;-68
2021/12/12 13:21:43;;;;;;;;;;;;;;;;;;2206816;59;1691;-69
2021/12/12 13:24:21;;;;;;;;;;;;;;;;;;2206443;59;1239;-69
2021/12/12 13:27:05;;;;;;;;;;;;;;;;;;2207075;59;1237;-68
2021/12/12 13:29:53;;;;;;;;;;;;;;;;;;2207227;59;2001;-68
2021/12/12 13:32:35;;;;;;;;;;;;;;;;;;2204695;67;1753;-68
2021/12/12 13:35:15;;;;;;;;;;;;;;;;;;2205088;59;2493;-68
2021/12/12 13:37:57;;;;;;;;;;;;;;;;;;2205549;59;2727;-68
2021/12/12 13:40:38;;;;;;;;;;;;;;;;;;2206947;59;1688;-69
2021/12/12 13:43:20;;;;;;;;;;;;;;;;;;2206198;59;1565;-69
2021/12/12 13:45:58;;;;;;;;;;;;;;;;;;2207522;59;1322;-68
2021/12/12 13:48:47;;;;;;;;;;;;;;;;;;2207523;59;1216;-69
2021/12/12 13:51:25;;;;;;;;;;;;;;;;;;2208090;59;1974;-68
2021/12/12 13:54:04;;;;;;;;;;;;;;;;;;2208168;67;1247;-69
2021/12/12 13:56:44;;;;;;;;;;;;;;;;;;2208458;59;1264;-69
2021/12/12 13:59:23;;;;;;;;;;;;;;;;;;2206705;59;1113;-68
2021/12/12 14:01:58;;;;;;;;;;;;;;;;;;2207218;59;1261;-68
2021/12/12 14:04:38;;;;;;;;;;;;;;;;;;2209211;59;1164;-68
2021/12/12 14:07:11;;;;;;;;;;;;;;;;;;2206773;67;1099;-68
2021/12/12 14:09:46;;;;;;;;;;;;;;;;;;2206966;59;1941;-68
2021/12/12 14:12:20;;;;;;;;;;;;;;;;;;2207989;59;1166;-69
2021/12/12 14:15:02;;;;;;;;;;;;;;;;;;2207492;67;1074;-69
2021/12/12 14:17:43;;;;;;;;;;;;;;;;;;2207194;59;1715;-68
2021/12/12 14:20:20;;;;;;;;;;;;;;;;;;2206863;59;1867;-69
2021/12/12 14:22:55;;;;;;;;;;;;;;;;;;2202774;59;1998;-69
2021/12/12 14:25:32;;;;;;;;;;;;;;;;;;2207386;59;2028;-69
2021/12/12 14:28:06;;;;;;;;;;;;;;;;;;2207555;59;1218;-69
2021/12/12 14:30:54;;;;;;;;;;;;;;;;;;2207237;59;1931;-68
2021/12/12 14:33:34;;;;;;;;;;;;;;;;;;2207191;59;1372;-68
2021/12/12 14:36:09;;;;;;;;;;;;;;;;;;2205707;59;2687;-68
2021/12/12 14:38:45;;;;;;;;;;;;;;;;;;2206328;59;2572;-68
2021/12/12 14:41:31;;;;;;;;;;;;;;;;;;2206652;59;1263;-68
2021/12/12 14:44:07;;;;;;;;;;;;;;;;;;2207627;59;1347;-68
2021/12/12 14:46:43;;;;;;;;;;;;;;;;;;2204787;59;1501;-68
2021/12/12 14:49:20;;;;;;;;;;;;;;;;;;2204884;59;1433;-69
2021/12/12 14:51:57;;;;;;;;;;;;;;;;;;2207361;59;1926;-68
2021/12/12 14:54:41;;;;;;;;;;;;;;;;;;2208148;67;1058;-68
2021/12/12 14:57:19;;;;;;;;;;;;;;;;;;2207554;59;1135;-68
2021/12/12 14:59:57;;;;;;;;;;;;;;;;;;2206579;59;1415;-68
2021/12/12 15:02:35;;;;;;;;;;;;;;;;;;2207418;67;1314;-69
2021/12/12 15:05:13;;;;;;;;;;;;;;;;;;2207732;59;1272;-68
2021/12/12 15:07:50;;;;;;;;;;;;;;;;;;2208061;67;1261;-69
2021/12/12 15:10:26;;;;;;;;;;;;;;;;;;2207306;59;1913;-68
2021/12/12 15:13:03;;;;;;;;;;;;;;;;;;2207821;59;1374;-68
2021/12/12 15:15:38;;;;;;;;;;;;;;;;;;2206772;59;1179;-68
2021/12/12 15:18:14;;;;;;;;;;;;;;;;;;2206436;59;1800;-69
2021/12/12 15:20:59;;;;;;;;;;;;;;;;;;2207031;59;1530;-68
2021/12/12 15:23:36;;;;;;;;;;;;;;;;;;2207399;59;1288;-69
2021/12/12 15:26:12;;;;;;;;;;;;;;;;;;2205345;59;1261;-68
2021/12/12 15:28:51;;;;;;;;;;;;;;;;;;2205698;59;2002;-69
2021/12/12 15:31:36;;;;;;;;;;;;;;;;;;2205081;59;1932;-68
2021/12/12 15:34:11;;;;;;;;;;;;;;;;;;2205159;59;1136;-68
2021/12/12 15:36:53;;;;;;;;;;;;;;;;;;2205798;59;2676;-68
2021/12/12 15:39:29;;;;;;;;;;;;;;;;;;2206030;59;2687;-68
2021/12/12 15:42:06;;;;;;;;;;;;;;;;;;2207299;67;1263;-68
2021/12/12 15:44:51;;;;;;;;;;;;;;;;;;;;;
2021/12/12 15:47:25;;;;;;;;;;;;;;;;;;2204483;59;1251;-69
2021/12/12 15:50:04;;;;;;;;;;;;;;;;;;2208990;59;1254;-68
2021/12/12 15:52:46;;;;;;;;;;;;;;;;;;2206986;59;1916;-69
2021/12/12 15:55:27;;;;;;;;;;;;;;;;;;2208648;67;1190;-69
2021/12/12 15:58:02;;;;;;;;;;;;;;;;;;2206803;59;1190;-68
2021/12/12 16:00:39;;;;;;;;;;;;;;;;;;2206888;59;1215;-68
2021/12/12 16:03:14;;;;;;;;;;;;;;;;;;2207378;67;1217;-68
2021/12/12 16:05:49;;;;;;;;;;;;;;;;;;2207795;59;1272;-68
2021/12/12 16:08:29;;;;;;;;;;;;;;;;;;2207150;67;1254;-68
2021/12/12 16:11:23;;;;;;;;;;;;;;;;;;2206265;59;1924;-69
2021/12/12 16:14:01;;;;;;;;;;;;;;;;;;2205715;59;2729;-68
2021/12/12 16:16:39;;;;;;;;;;;;;;;;;;2207651;67;1163;-69
2021/12/12 16:19:14;;;;;;;;;;;;;;;;;;2207764;59;1531;-69
2021/12/12 16:22:19;;;;;;;;;;;;;;;;;;2207211;59;2139;-68
2021/12/12 16:25:08;;;;;;;;;;;;;;;;;;2206218;59;2611;-68
2021/12/12 16:27:43;;;;;;;;;;;;;;;;;;2206383;59;1051;-69
2021/12/12 16:30:26;;;;;;;;;;;;;;;;;;2207128;67;1500;-68
2021/12/12 16:33:01;;;;;;;;;;;;;;;;;;2207442;67;1948;-69
2021/12/12 16:35:42;;;;;;;;;;;;;;;;;;2206231;59;1764;-68
2021/12/12 16:38:18;;;;;;;;;;;;;;;;;;2205724;59;2701;-68
2021/12/12 16:43:59;;;;;;;;;;;;;;;;;;2206123;59;1537;-69
2021/12/12 16:46:38;;;;;;;;;;;;;;;;;;2207149;59;1310;-68
2021/12/12 16:49:27;;;;;;;;;;;;;;;;;;;;;
2021/12/12 16:52:05;;;;;;;;;;;;;;;;;;2202907;59;1938;-69
2021/12/12 16:54:49;;;;;;;;;;;;;;;;;;2205537;59;2373;-68
2021/12/12 16:57:26;;;;;;;;;;;;;;;;;;2205377;59;1088;-68
2021/12/12 17:00:05;;;;;;;;;;;;;;;;;;2205521;59;1338;-69
2021/12/12 17:02:42;;;;;;;;;;;;;;;;;;2205877;59;2327;-68
2021/12/12 17:05:23;;;;;;;;;;;;;;;;;;2206873;59;2117;-68
2021/12/12 17:08:13;;;;;;;;;;;;;;;;;;2205906;59;2057;-68
2021/12/12 17:10:57;;;;;;;;;;;;;;;;;;2206267;59;1923;-68
2021/12/12 17:13:35;;;;;;;;;;;;;;;;;;2206093;59;2803;-68
2021/12/12 17:16:10;;;;;;;;;;;;;;;;;;2206162;59;1419;-68
2021/12/12 17:18:47;;;;;;;;;;;;;;;;;;2206073;59;1488;-68
2021/12/12 17:21:22;;;;;;;;;;;;;;;;;;2206439;59;1816;-68
2021/12/12 17:24:01;;;;;;;;;;;;;;;;;;2207622;59;1120;-69
2021/12/12 17:26:36;;;;;;;;;;;;;;;;;;2208302;67;1175;-68
2021/12/12 17:29:13;;;;;;;;;;;;;;;;;;2206591;59;1722;-69
2021/12/12 17:31:48;;;;;;;;;;;;;;;;;;2206860;59;1922;-68
2021/12/12 17:34:34;;;;;;;;;;;;;;;;;;2205090;59;1299;-68
2021/12/12 17:37:15;;;;;;;;;;;;;;;;;;2206300;67;1099;-69
2021/12/12 17:39:50;;;;;;;;;;;;;;;;;;2205564;59;2686;-68
2021/12/12 17:42:53;;;;;;;;;;;;;;;;;;2206876;59;2636;-68
2021/12/12 17:45:44;;;;;;;;;;;;;;;;;;2206342;59;1113;-69
2021/12/12 17:48:36;;;;;;;;;;;;;;;;;;2204682;59;1288;-68
2021/12/12 17:51:24;;;;;;;;;;;;;;;;;;2205888;59;1929;-68
2021/12/12 17:54:07;;;;;;;;;;;;;;;;;;2201390;59;1303;-68
2021/12/12 17:56:41;;;;;;;;;;;;;;;;;;2207374;67;1158;-68
2021/12/12 18:02:17;;;;;;;;;;;;;;;;;;2205737;67;1712;-68
2021/12/12 18:04:51;;;;;;;;;;;;;;;;;;2206879;59;1208;-68
2021/12/12 18:07:43;;;;;;;;;;;;;;;;;;2207433;67;1215;-68
2021/12/12 18:10:33;;;;;;;;;;;;;;;;;;2206059;59;1269;-68
2021/12/12 18:13:09;;;;;;;;;;;;;;;;;;2206215;59;1932;-68
2021/12/12 18:16:02;;;;;;;;;;;;;;;;;;2206938;59;1942;-68
2021/12/12 18:18:51;;;;;;;;;;;;;;;;;;2206168;59;1301;-68
2021/12/12 18:21:27;;;;;;;;;;;;;;;;;;2206665;59;1757;-68
2021/12/12 18:24:06;;;;;;;;;;;;;;;;;;2206315;59;1520;-68
2021/12/12 18:26:48;;;;;;;;;;;;;;;;;;2207375;59;1718;-69
2021/12/12 18:29:34;;;;;;;;;;;;;;;;;;2205599;59;1561;-69
2021/12/12 18:32:19;;;;;;;;;;;;;;;;;;2206918;59;1943;-69
2021/12/12 18:34:52;;;;;;;;;;;;;;;;;;2206968;59;1773;-69
2021/12/12 18:37:28;;;;;;;;;;;;;;;;;;2207634;59;1814;-69
2021/12/12 18:40:12;;;;;;;;;;;;;;;;;;2203968;59;2633;-69
2021/12/12 18:43:03;;;;;;;;;;;;;;;;;;2206813;59;2464;-69
2021/12/12 18:45:42;;;;;;;;;;;;;;;;;;2207744;67;1227;-69
2021/12/12 18:48:18;;;;;;;;;;;;;;;;;;2207643;59;1236;-69
2021/12/12 18:50:53;;;;;;;;;;;;;;;;;;2204590;59;1341;-69
2021/12/12 18:53:30;;;;;;;;;;;;;;;;;;2203639;59;1952;-69
2021/12/12 18:56:06;;;;;;;;;;;;;;;;;;2204164;59;1338;-69
2021/12/12 18:58:47;;;;;;;;;;;;;;;;;;2204308;59;1255;-69
2021/12/12 19:01:22;;;;;;;;;;;;;;;;;;2206103;59;1486;-69
2021/12/12 19:03:58;;;;;;;;;;;;;;;;;;2207197;59;1506;-69
2021/12/12 19:06:33;;;;;;;;;;;;;;;;;;2206659;67;1035;-69
2021/12/12 19:09:07;;;;;;;;;;;;;;;;;;2206831;59;1973;-69